Main page
METAR-TAF:

METAR-TAF

Airports :

Aberdeen, Scotland

Aberdeen Airport

latitude: 57-12N, longitude: 002-13W, elevation: 65 m

Current weather observation

The report was made 25 minutes ago, at 08:20 UTC
Wind 6 kt from the West, varying between Southwest and West/Northwest
Temperature 14°C
Humidity 63%
Pressure 1014 hPa
Visibility 10 km or more
Scattered clouds at a height of 3500 ft

METAR: EGPD 230820Z 26006KT 220V300 9999 SCT035 14/07 Q1014

Time: 09:45 (08:45 UTC)

Forecast

The report was made 3 hours and 45 minutes ago, at 05:00 UTC
Forecast valid from 23 at 06 UTC to 24 at 06 UTC
Wind 9 kt from the West
Visibility 10 km or more
Few clouds at a height of 3500 ft
Probability 30% :
Temporary
from 24 at 02 UTC to 24 at 06 UTC
Visibility: 8000 m
light rain

TAF: EGPD 230500Z 2306/2406 26009KT 9999 FEW035 PROB30 TEMPO 2402/2406 8000 -RA

Weather observations and forecasts of more than 4000 airports (METAR and TAF reports).

The available stations are represented by yellow and red dots on the map.

Hover mouse over dot to see the name of the station.

Then click to see weather observations and forecasts.

To change the map : click on the green buttons with a black cross to zoom in, on the green button with a dash to zoom out, or on the green arrows for adjacent maps.


METAR-TAF: